Nearby METAR Reports

 

KMTN - Baltimore/Martin, Maryland, USA
Distance from station: SSE 8mi, 13km
Updated: Fri, 18-Apr-2014 1:18am EDT
Partly cloudy
Partly cloudy
 Wind from ENE
Wind: ENE 7 mph , 11 km/h
Temperature: 39°F , 4°C
Wind Chill: 34°F , 1°C
Dew Point: 32°F , 0°C
Humidity: 75%
Barometer: 30.61 inHg , 1036.6 hPa
Clouds: Partly cloudy
Visibility: 10 miles , 16 km
Cloud details: Partly cloudy 2600 ft
2014/04/18 05:18 KMTN 180518Z AUTO 06006KT 10SM SCT026 04/00 A3061 RMK AO2 LTG DSNT E
KDMH - Baltimore/Dwntwn, Maryland, USA
Distance from station: SW 12mi, 19km
Updated: Fri, 18-Apr-2014 12:54am EDT

 
Temperature: 41°F , 5°C
Dew Point: 28°F , -2°C
Humidity: 61%
Barometer: 30.60 inHg , 1036.2 hPa
2014/04/18 04:54 KDMH 180454Z AUTO 05/M02 A3060 RMK AO1 SLP360 T00501017 401220039
 
KBWI - Balto/Wash Intl, Maryland, USA
Distance from station: SSW 20mi, 33km
Updated: Fri, 18-Apr-2014 12:54am EDT
Few Clouds
Few Clouds
 Wind from ENE
Wind: ENE 3 mph , 6 km/h
Temperature: 37°F , 3°C
Dew Point: 28°F , -2°C
Humidity: 70%
Barometer: 30.59 inHg , 1035.9 hPa
Clouds: Few Clouds
Visibility: 10 miles , 16 km
Cloud details: Few Clouds 2700 ft
2014/04/18 04:54 KBWI 180454Z 06003KT 10SM FEW027 03/M02 A3059 RMK AO2 SLP357 T00281017 401111011
KDMW - Carroll Cnty, Maryland, USA
Distance from station: WNW 30mi, 48km
Updated: Fri, 18-Apr-2014 1:15am EDT
Clear
Clear
 Wind from E
Wind: E 3 mph , 6 km/h
Temperature: 37°F , 3°C
Dew Point: 30°F , -1°C
Humidity: 75%
Barometer: 30.54 inHg , 1034.2 hPa
Clouds: Clear
Visibility: 10 miles , 16 km
2014/04/18 05:15 KDMW 180515Z AUTO 10003KT 10SM CLR 03/M01 A3054 RMK AO2 LTG DSNT SE
 
KNAK - Annapolis/Naval, Maryland, USA
Distance from station: S 30mi, 48km
Updated: Fri, 18-Apr-2014 12:54am EDT
Overcast
Overcast
 Wind from E
Wind: E 5 mph , 7 km/h
Temperature: 41°F , 5°C
Wind Chill: 38°F , 3°C
Dew Point: 30°F , -1°C
Humidity: 66%
Barometer: 30.59 inHg , 1035.9 hPa
Clouds: Overcast
Visibility: 10 miles , 16 km
Cloud details: Overcast 2900 ft
2014/04/18 04:54 KNAK 180454Z AUTO 10004KT 10SM OVC029 05/M01 A3059 RMK AO2 SLP359 T00501006 401000044
KW29 - Stevensville, Maryland, USA
Distance from station: SSE 31mi, 50km
Updated: Fri, 18-Apr-2014 1:18am EDT
Overcast
Overcast
 Wind from E
Wind: E 3 mph , 6 km/h
Temperature: 39°F , 4°C
Dew Point: 32°F , 0°C
Humidity: 75%
Barometer: 30.58 inHg , 1035.6 hPa
Clouds: Overcast
Visibility: 10 miles , 16 km
Cloud details: Overcast 2600 ft
2014/04/18 05:18 KW29 180518Z AUTO 10003KT 10SM OVC026 04/00 A3058 RMK AO1 LTG DSNT SE
 
KCGS - College Park, Maryland, USA
Distance from station: SW 38mi, 61km
Updated: Fri, 18-Apr-2014 1:15am EDT
Clear
Clear
 Wind from ENE
Wind: ENE 3 mph , 6 km/h
Temperature: 37°F , 3°C
Dew Point: 32°F , 0°C
Humidity: 81%
Barometer: 30.56 inHg , 1034.9 hPa
Clouds: Clear
Visibility: 10 miles , 16 km
2014/04/18 05:15 KCGS 180515Z AUTO 07003KT 10SM CLR 03/00 A3056 RMK AO1
KGAI - Gaithersburg, Maryland, USA
Distance from station: WSW 40mi, 65km
Updated: Fri, 18-Apr-2014 1:15am EDT
Clear
Clear
 Wind from E
Wind: E 5 mph , 7 km/h
Temperature: 36°F , 2°C
Wind Chill: 32°F , 0°C
Dew Point: 28°F , -2°C
Humidity: 75%
Barometer: 30.57 inHg , 1035.2 hPa
Clouds: Clear
Visibility: 10 miles , 16 km
2014/04/18 05:15 KGAI 180515Z AUTO 09004KT 10SM CLR 02/M02 A3057 RMK AO1
 
KTHV - York, Pennsylvania, USA
Distance from station: NNW 40mi, 65km
Updated: Fri, 18-Apr-2014 12:53am EDT
Clear
Clear
 Wind from SSW
Wind: SSW 3 mph , 6 km/h
Temperature: 37°F , 3°C
Dew Point: 30°F , -1°C
Humidity: 75%
Barometer: 30.60 inHg , 1036.2 hPa
Clouds: Clear
Visibility: 10 miles , 16 km
2014/04/18 04:53 KTHV 180453Z AUTO 21003KT 10SM CLR 03/M01 A3060 RMK AO2 SLP366 T00281011 401221039
KFDK - Frederick, Maryland, USA
Distance from station: W 47mi, 75km
Updated: Fri, 18-Apr-2014 1:15am EDT
Clear
Clear
 Wind from calm
Wind: Calm
Temperature: 37°F , 3°C
Dew Point: 34°F , 1°C
Humidity: 87%
Barometer: 30.58 inHg , 1035.6 hPa
Clouds: Clear
Visibility: 10 miles , 16 km
2014/04/18 05:15 KFDK 180515Z AUTO 00000KT 10SM CLR 03/01 A3058 RMK AO2 LTG DSNT E
 
KESN - Easton/Newnam, Maryland, USA
Distance from station: SSE 48mi, 78km
Updated: Fri, 18-Apr-2014 1:28am EDT
Mostly cloudy
Mostly cloudy
 Wind from E
Wind: E 6 mph , 9 km/h
Temperature: 43°F , 6°C
Wind Chill: 39°F , 4°C
Dew Point: 34°F , 1°C
Humidity: 71%
Barometer: 30.60 inHg , 1036.2 hPa
Clouds: Mostly cloudy
Visibility: 10 miles , 16 km
Cloud details: Mostly cloudy 2400 ft
2014/04/18 05:28 KESN 180528Z AUTO 10005KT 10SM BKN024 06/01 A3060 RMK AO2 T00550009
KDCA - Washington/Natl, Washington D.c., USA
Distance from station: SW 49mi, 79km
Updated: Fri, 18-Apr-2014 12:52am EDT
Mostly cloudy
Mostly cloudy
 Wind from ENE
Wind: ENE 9 mph , 15 km/h
Temperature: 43°F , 6°C
Wind Chill: 38°F , 3°C
Dew Point: 32°F , 0°C
Humidity: 66%
Barometer: 30.58 inHg , 1035.6 hPa
Clouds: Mostly cloudy
Visibility: 10 miles , 16 km
Cloud details: Few Clouds 4000 ft
Mostly cloudy 25000 ft
2014/04/18 04:52 KDCA 180452Z 07008KT 10SM FEW040 BKN250 06/00 A3058 RMK AO2 SLP354 T00560000 401330039
 
KLNS - Lancaster, Pennsylvania, USA
Distance from station: N 49mi, 79km
Updated: Fri, 18-Apr-2014 12:53am EDT
Clear
Clear
 Wind from calm
Wind: Calm
Temperature: 37°F , 3°C
Dew Point: 28°F , -2°C
Humidity: 70%
Barometer: 30.60 inHg , 1036.2 hPa
Clouds: Clear
Visibility: 10 miles , 16 km
2014/04/18 04:53 KLNS 180453Z AUTO 00000KT 10SM CLR 03/M02 A3060 RMK AO2 SLP365 T00281022 401171017
KILG - Wilmington, Delaware, USA
Distance from station: ENE 50mi, 81km
Updated: Fri, 18-Apr-2014 12:51am EDT
Overcast
Overcast
 Wind from E
Wind: E 9 mph , 15 km/h
Temperature: 39°F , 4°C
Wind Chill: 33°F , 1°C
Dew Point: 28°F , -2°C
Humidity: 65%
Barometer: 30.63 inHg , 1037.3 hPa
Clouds: Overcast
Visibility: 10 miles , 16 km
Cloud details: Overcast 2400 ft
2014/04/18 04:51 KILG 180451Z AUTO 09008KT 10SM OVC024 04/M02 A3063 RMK AO2 SLP372 T00441017 401220011